sensor_id;sensor_type;location;lat;lon;timestamp;temperature;humidity
70089;HTU21D;57460;47.134;19.888;2024-02-15T00:00:13;4.03;67.18
70089;HTU21D;57460;47.134;19.888;2024-02-15T00:02:40;4.05;68.52
70089;HTU21D;57460;47.134;19.888;2024-02-15T00:05:13;4.13;67.26
70089;HTU21D;57460;47.134;19.888;2024-02-15T00:07:41;4.17;67.03
70089;HTU21D;57460;47.134;19.888;2024-02-15T00:10:07;4.22;66.81
70089;HTU21D;57460;47.134;19.888;2024-02-15T00:12:34;4.28;67.12
70089;HTU21D;57460;47.134;19.888;2024-02-15T00:15:00;4.27;66.55
70089;HTU21D;57460;47.134;19.888;2024-02-15T00:17:27;4.32;66.27
70089;HTU21D;57460;47.134;19.888;2024-02-15T00:19:55;4.35;66.73
70089;HTU21D;57460;47.134;19.888;2024-02-15T00:22:21;4.34;67.39
70089;HTU21D;57460;47.134;19.888;2024-02-15T00:24:47;4.31;66.07
70089;HTU21D;57460;47.134;19.888;2024-02-15T00:27:17;4.20;67.94
70089;HTU21D;57460;47.134;19.888;2024-02-15T00:29:43;4.13;71.61
70089;HTU21D;57460;47.134;19.888;2024-02-15T00:32:12;4.12;71.32
70089;HTU21D;57460;47.134;19.888;2024-02-15T00:34:37;4.17;68.26
70089;HTU21D;57460;47.134;19.888;2024-02-15T00:37:06;4.17;67.91
70089;HTU21D;57460;47.134;19.888;2024-02-15T00:39:32;4.14;71.32
70089;HTU21D;57460;47.134;19.888;2024-02-15T00:41:58;4.18;70.90
70089;HTU21D;57460;47.134;19.888;2024-02-15T00:44:28;4.28;70.19
70089;HTU21D;57460;47.134;19.888;2024-02-15T00:46:54;4.41;67.62
70089;HTU21D;57460;47.134;19.888;2024-02-15T00:49:21;4.58;65.07
70089;HTU21D;57460;47.134;19.888;2024-02-15T00:51:47;4.62;68.31
70089;HTU21D;57460;47.134;19.888;2024-02-15T00:54:14;4.67;68.32
70089;HTU21D;57460;47.134;19.888;2024-02-15T00:56:39;4.76;68.16
70089;HTU21D;57460;47.134;19.888;2024-02-15T00:59:05;4.81;69.89
70089;HTU21D;57460;47.134;19.888;2024-02-15T01:01:31;4.80;70.34
70089;HTU21D;57460;47.134;19.888;2024-02-15T01:03:57;4.84;69.78
70089;HTU21D;57460;47.134;19.888;2024-02-15T01:06:23;4.88;66.85
70089;HTU21D;57460;47.134;19.888;2024-02-15T01:08:49;4.93;68.81
70089;HTU21D;57460;47.134;19.888;2024-02-15T01:11:15;5.02;67.36
70089;HTU21D;57460;47.134;19.888;2024-02-15T01:13:40;5.09;67.88
70089;HTU21D;57460;47.134;19.888;2024-02-15T01:16:07;5.16;67.76
70089;HTU21D;57460;47.134;19.888;2024-02-15T01:18:33;5.19;67.78
70089;HTU21D;57460;47.134;19.888;2024-02-15T01:21:00;5.21;66.49
70089;HTU21D;57460;47.134;19.888;2024-02-15T01:23:26;5.24;68.85
70089;HTU21D;57460;47.134;19.888;2024-02-15T01:25:52;5.23;68.26
70089;HTU21D;57460;47.134;19.888;2024-02-15T01:28:18;5.09;69.97
70089;HTU21D;57460;47.134;19.888;2024-02-15T01:30:45;5.12;67.21
70089;HTU21D;57460;47.134;19.888;2024-02-15T01:33:11;5.22;66.73
70089;HTU21D;57460;47.134;19.888;2024-02-15T01:35:37;5.20;68.30
70089;HTU21D;57460;47.134;19.888;2024-02-15T01:38:04;5.21;69.13
70089;HTU21D;57460;47.134;19.888;2024-02-15T01:40:31;5.23;68.32
70089;HTU21D;57460;47.134;19.888;2024-02-15T01:42:56;5.30;65.83
70089;HTU21D;57460;47.134;19.888;2024-02-15T01:45:24;5.34;66.46
70089;HTU21D;57460;47.134;19.888;2024-02-15T01:47:52;5.48;64.22
70089;HTU21D;57460;47.134;19.888;2024-02-15T01:50:18;5.46;64.93
70089;HTU21D;57460;47.134;19.888;2024-02-15T01:52:48;5.39;66.78
70089;HTU21D;57460;47.134;19.888;2024-02-15T01:55:17;5.45;65.57
70089;HTU21D;57460;47.134;19.888;2024-02-15T01:57:44;5.49;64.93
70089;HTU21D;57460;47.134;19.888;2024-02-15T02:00:15;5.50;65.37
70089;HTU21D;57460;47.134;19.888;2024-02-15T02:02:44;5.54;65.45
70089;HTU21D;57460;47.134;19.888;2024-02-15T02:05:10;5.57;66.88
70089;HTU21D;57460;47.134;19.888;2024-02-15T02:07:37;5.62;66.33
70089;HTU21D;57460;47.134;19.888;2024-02-15T02:10:03;5.54;69.68
70089;HTU21D;57460;47.134;19.888;2024-02-15T02:12:31;5.40;69.26
70089;HTU21D;57460;47.134;19.888;2024-02-15T02:14:57;5.32;67.94
70089;HTU21D;57460;47.134;19.888;2024-02-15T02:17:22;5.35;67.91
70089;HTU21D;57460;47.134;19.888;2024-02-15T02:19:49;5.48;68.36
70089;HTU21D;57460;47.134;19.888;2024-02-15T02:22:19;5.60;69.97
70089;HTU21D;57460;47.134;19.888;2024-02-15T02:25:06;5.70;68.94
70089;HTU21D;57460;47.134;19.888;2024-02-15T02:27:34;5.80;68.65
70089;HTU21D;57460;47.134;19.888;2024-02-15T02:30:03;5.87;68.30
70089;HTU21D;57460;47.134;19.888;2024-02-15T02:32:34;5.94;68.35
70089;HTU21D;57460;47.134;19.888;2024-02-15T02:35:02;6.00;67.46
70089;HTU21D;57460;47.134;19.888;2024-02-15T02:37:28;6.07;67.94
70089;HTU21D;57460;47.134;19.888;2024-02-15T02:39:54;6.14;67.30
70089;HTU21D;57460;47.134;19.888;2024-02-15T02:42:20;6.24;67.75
70089;HTU21D;57460;47.134;19.888;2024-02-15T02:44:46;6.34;67.71
70089;HTU21D;57460;47.134;19.888;2024-02-15T02:47:12;6.39;67.33
70089;HTU21D;57460;47.134;19.888;2024-02-15T02:49:38;6.45;66.93
70089;HTU21D;57460;47.134;19.888;2024-02-15T02:52:04;6.51;67.75
70089;HTU21D;57460;47.134;19.888;2024-02-15T02:54:30;6.52;66.97
70089;HTU21D;57460;47.134;19.888;2024-02-15T02:56:56;6.63;64.88
70089;HTU21D;57460;47.134;19.888;2024-02-15T02:59:21;6.58;66.69
70089;HTU21D;57460;47.134;19.888;2024-02-15T03:01:48;6.55;67.24
70089;HTU21D;57460;47.134;19.888;2024-02-15T03:04:16;6.58;66.81
70089;HTU21D;57460;47.134;19.888;2024-02-15T03:06:43;6.66;66.26
70089;HTU21D;57460;47.134;19.888;2024-02-15T03:09:09;6.71;67.27
70089;HTU21D;57460;47.134;19.888;2024-02-15T03:11:36;6.71;66.52
70089;HTU21D;57460;47.134;19.888;2024-02-15T03:14:02;6.61;68.00
70089;HTU21D;57460;47.134;19.888;2024-02-15T03:16:33;6.60;67.74
70089;HTU21D;57460;47.134;19.888;2024-02-15T03:19:03;6.65;69.58
70089;HTU21D;57460;47.134;19.888;2024-02-15T03:21:30;6.64;69.30
70089;HTU21D;57460;47.134;19.888;2024-02-15T03:23:55;6.64;68.92
70089;HTU21D;57460;47.134;19.888;2024-02-15T03:26:31;6.70;68.73
70089;HTU21D;57460;47.134;19.888;2024-02-15T03:29:03;6.74;68.68
70089;HTU21D;57460;47.134;19.888;2024-02-15T03:31:29;6.81;68.23
70089;HTU21D;57460;47.134;19.888;2024-02-15T03:33:59;6.85;67.30
70089;HTU21D;57460;47.134;19.888;2024-02-15T03:36:25;6.90;66.86
70089;HTU21D;57460;47.134;19.888;2024-02-15T03:38:51;6.95;66.75
70089;HTU21D;57460;47.134;19.888;2024-02-15T03:41:19;7.05;65.00
70089;HTU21D;57460;47.134;19.888;2024-02-15T03:43:45;7.10;64.91
70089;HTU21D;57460;47.134;19.888;2024-02-15T03:46:12;7.09;66.04
70089;HTU21D;57460;47.134;19.888;2024-02-15T03:48:39;7.07;66.61
70089;HTU21D;57460;47.134;19.888;2024-02-15T03:51:06;7.05;66.88
70089;HTU21D;57460;47.134;19.888;2024-02-15T03:53:32;7.04;66.78
70089;HTU21D;57460;47.134;19.888;2024-02-15T03:55:59;7.08;67.27
70089;HTU21D;57460;47.134;19.888;2024-02-15T03:58:26;7.11;67.46
70089;HTU21D;57460;47.134;19.888;2024-02-15T04:00:52;7.16;67.20
70089;HTU21D;57460;47.134;19.888;2024-02-15T04:03:17;7.19;67.36
70089;HTU21D;57460;47.134;19.888;2024-02-15T04:05:43;7.23;67.40
70089;HTU21D;57460;47.134;19.888;2024-02-15T04:08:09;7.25;67.01
70089;HTU21D;57460;47.134;19.888;2024-02-15T04:10:36;7.25;67.28
70089;HTU21D;57460;47.134;19.888;2024-02-15T04:13:03;7.20;68.17
70089;HTU21D;57460;47.134;19.888;2024-02-15T04:15:29;7.18;67.80
70089;HTU21D;57460;47.134;19.888;2024-02-15T04:17:54;7.15;70.54
70089;HTU21D;57460;47.134;19.888;2024-02-15T04:20:22;7.09;68.85
70089;HTU21D;57460;47.134;19.888;2024-02-15T04:22:48;6.97;69.63
70089;HTU21D;57460;47.134;19.888;2024-02-15T04:25:16;6.90;69.18
70089;HTU21D;57460;47.134;19.888;2024-02-15T04:27:44;6.89;72.16
70089;HTU21D;57460;47.134;19.888;2024-02-15T04:30:11;6.79;73.08
70089;HTU21D;57460;47.134;19.888;2024-02-15T04:32:37;6.71;70.43
70089;HTU21D;57460;47.134;19.888;2024-02-15T04:35:04;6.57;72.50
70089;HTU21D;57460;47.134;19.888;2024-02-15T04:37:31;6.45;73.61
70089;HTU21D;57460;47.134;19.888;2024-02-15T04:40:00;6.41;72.73
70089;HTU21D;57460;47.134;19.888;2024-02-15T04:42:33;6.40;73.02
70089;HTU21D;57460;47.134;19.888;2024-02-15T04:45:00;6.38;73.13
70089;HTU21D;57460;47.134;19.888;2024-02-15T04:47:26;6.36;73.19
70089;HTU21D;57460;47.134;19.888;2024-02-15T04:49:52;6.35;72.96
70089;HTU21D;57460;47.134;19.888;2024-02-15T04:52:17;6.37;74.30
70089;HTU21D;57460;47.134;19.888;2024-02-15T04:54:43;6.40;73.22
70089;HTU21D;57460;47.134;19.888;2024-02-15T04:57:10;6.45;71.83
70089;HTU21D;57460;47.134;19.888;2024-02-15T04:59:37;6.54;71.59
70089;HTU21D;57460;47.134;19.888;2024-02-15T05:02:03;6.53;72.63
70089;HTU21D;57460;47.134;19.888;2024-02-15T05:04:29;6.50;71.87
70089;HTU21D;57460;47.134;19.888;2024-02-15T05:06:54;6.49;71.29
70089;HTU21D;57460;47.134;19.888;2024-02-15T05:09:21;6.46;71.72
70089;HTU21D;57460;47.134;19.888;2024-02-15T05:11:48;6.43;72.19
70089;HTU21D;57460;47.134;19.888;2024-02-15T05:14:14;6.45;70.39
70089;HTU21D;57460;47.134;19.888;2024-02-15T05:16:46;6.56;67.14
70089;HTU21D;57460;47.134;19.888;2024-02-15T05:19:14;6.87;65.98
70089;HTU21D;57460;47.134;19.888;2024-02-15T05:21:40;6.59;66.62
70089;HTU21D;57460;47.134;19.888;2024-02-15T05:24:06;6.27;68.65
70089;HTU21D;57460;47.134;19.888;2024-02-15T05:26:32;6.21;67.52
70089;HTU21D;57460;47.134;19.888;2024-02-15T05:28:58;6.15;67.21
70089;HTU21D;57460;47.134;19.888;2024-02-15T05:31:24;5.94;69.37
70089;HTU21D;57460;47.134;19.888;2024-02-15T05:33:53;5.85;70.05
70089;HTU21D;57460;47.134;19.888;2024-02-15T05:36:21;5.80;71.09
70089;HTU21D;57460;47.134;19.888;2024-02-15T05:38:51;5.77;70.21
70089;HTU21D;57460;47.134;19.888;2024-02-15T05:41:17;5.80;70.45
70089;HTU21D;57460;47.134;19.888;2024-02-15T05:43:45;5.83;70.51
70089;HTU21D;57460;47.134;19.888;2024-02-15T05:46:12;5.80;69.52
70089;HTU21D;57460;47.134;19.888;2024-02-15T05:48:38;5.75;69.02
70089;HTU21D;57460;47.134;19.888;2024-02-15T05:51:06;5.67;69.32
70089;HTU21D;57460;47.134;19.888;2024-02-15T05:53:33;5.62;70.17
70089;HTU21D;57460;47.134;19.888;2024-02-15T05:56:06;5.53;71.47
70089;HTU21D;57460;47.134;19.888;2024-02-15T05:58:32;5.52;70.10
70089;HTU21D;57460;47.134;19.888;2024-02-15T06:00:59;5.46;70.28
70089;HTU21D;57460;47.134;19.888;2024-02-15T06:03:28;5.40;70.43
70089;HTU21D;57460;47.134;19.888;2024-02-15T06:05:55;5.27;70.68
70089;HTU21D;57460;47.134;19.888;2024-02-15T06:08:27;5.18;70.77
70089;HTU21D;57460;47.134;19.888;2024-02-15T06:10:55;5.17;70.83
70089;HTU21D;57460;47.134;19.888;2024-02-15T06:13:23;5.19;70.68
70089;HTU21D;57460;47.134;19.888;2024-02-15T06:15:49;5.11;71.72
70089;HTU21D;57460;47.134;19.888;2024-02-15T06:18:24;5.18;70.39
70089;HTU21D;57460;47.134;19.888;2024-02-15T06:20:52;5.22;71.14
70089;HTU21D;57460;47.134;19.888;2024-02-15T06:23:18;5.12;74.34
70089;HTU21D;57460;47.134;19.888;2024-02-15T06:25:46;5.22;72.99
70089;HTU21D;57460;47.134;19.888;2024-02-15T06:28:16;5.33;71.73
70089;HTU21D;57460;47.134;19.888;2024-02-15T06:31:06;5.41;71.80
70089;HTU21D;57460;47.134;19.888;2024-02-15T06:33:51;5.49;71.06
70089;HTU21D;57460;47.134;19.888;2024-02-15T06:36:45;5.55;69.64
70089;HTU21D;57460;47.134;19.888;2024-02-15T06:39:29;5.59;70.65
70089;HTU21D;57460;47.134;19.888;2024-02-15T06:42:10;5.54;71.88
70089;HTU21D;57460;47.134;19.888;2024-02-15T06:44:46;5.61;71.84
70089;HTU21D;57460;47.134;19.888;2024-02-15T06:47:13;5.68;73.10
70089;HTU21D;57460;47.134;19.888;2024-02-15T06:49:39;5.77;72.67
70089;HTU21D;57460;47.134;19.888;2024-02-15T06:52:08;5.89;72.84
70089;HTU21D;57460;47.134;19.888;2024-02-15T06:54:35;6.05;72.77
70089;HTU21D;57460;47.134;19.888;2024-02-15T06:57:02;6.17;72.76
70089;HTU21D;57460;47.134;19.888;2024-02-15T06:59:28;6.41;72.29
70089;HTU21D;57460;47.134;19.888;2024-02-15T07:01:54;6.64;72.00
70089;HTU21D;57460;47.134;19.888;2024-02-15T07:04:21;6.83;71.30
70089;HTU21D;57460;47.134;19.888;2024-02-15T07:06:47;6.97;71.32
70089;HTU21D;57460;47.134;19.888;2024-02-15T07:09:14;7.08;72.16
70089;HTU21D;57460;47.134;19.888;2024-02-15T07:11:46;7.12;71.80
70089;HTU21D;57460;47.134;19.888;2024-02-15T07:14:12;7.14;72.93
70089;HTU21D;57460;47.134;19.888;2024-02-15T07:16:39;7.24;72.03
70089;HTU21D;57460;47.134;19.888;2024-02-15T07:19:05;7.31;71.51
70089;HTU21D;57460;47.134;19.888;2024-02-15T07:21:31;7.41;71.33
70089;HTU21D;57460;47.134;19.888;2024-02-15T07:23:57;7.54;71.49
70089;HTU21D;57460;47.134;19.888;2024-02-15T07:26:25;7.67;71.74
70089;HTU21D;57460;47.134;19.888;2024-02-15T07:28:52;7.81;71.14
70089;HTU21D;57460;47.134;19.888;2024-02-15T07:31:19;7.94;70.50
70089;HTU21D;57460;47.134;19.888;2024-02-15T07:33:47;8.05;70.11
70089;HTU21D;57460;47.134;19.888;2024-02-15T07:36:18;8.17;70.33
70089;HTU21D;57460;47.134;19.888;2024-02-15T07:38:44;8.31;69.25
70089;HTU21D;57460;47.134;19.888;2024-02-15T07:41:11;8.46;68.91
70089;HTU21D;57460;47.134;19.888;2024-02-15T07:43:38;8.53;68.55
70089;HTU21D;57460;47.134;19.888;2024-02-15T07:46:04;8.60;69.07
70089;HTU21D;57460;47.134;19.888;2024-02-15T07:48:30;8.65;68.23
70089;HTU21D;57460;47.134;19.888;2024-02-15T07:50:57;8.76;67.27
70089;HTU21D;57460;47.134;19.888;2024-02-15T07:53:24;8.80;68.61
70089;HTU21D;57460;47.134;19.888;2024-02-15T07:55:50;8.92;68.39
70089;HTU21D;57460;47.134;19.888;2024-02-15T07:58:16;9.02;67.59
70089;HTU21D;57460;47.134;19.888;2024-02-15T08:00:45;9.11;67.39
70089;HTU21D;57460;47.134;19.888;2024-02-15T08:03:11;9.24;67.08
70089;HTU21D;57460;47.134;19.888;2024-02-15T08:05:37;9.35;66.88
70089;HTU21D;57460;47.134;19.888;2024-02-15T08:08:03;9.45;68.23
70089;HTU21D;57460;47.134;19.888;2024-02-15T08:10:29;9.59;67.38
70089;HTU21D;57460;47.134;19.888;2024-02-15T08:12:55;9.71;67.28
70089;HTU21D;57460;47.134;19.888;2024-02-15T08:15:23;9.83;66.72
70089;HTU21D;57460;47.134;19.888;2024-02-15T08:17:51;9.90;66.77
70089;HTU21D;57460;47.134;19.888;2024-02-15T08:20:16;9.94;66.60
70089;HTU21D;57460;47.134;19.888;2024-02-15T08:22:47;9.93;67.39
70089;HTU21D;57460;47.134;19.888;2024-02-15T08:25:13;9.99;67.43
70089;HTU21D;57460;47.134;19.888;2024-02-15T08:27:43;10.03;66.50
70089;HTU21D;57460;47.134;19.888;2024-02-15T08:30:13;10.07;67.38
70089;HTU21D;57460;47.134;19.888;2024-02-15T08:32:40;10.03;66.99
70089;HTU21D;57460;47.134;19.888;2024-02-15T08:35:12;9.95;67.62
70089;HTU21D;57460;47.134;19.888;2024-02-15T08:37:39;9.90;66.54
70089;HTU21D;57460;47.134;19.888;2024-02-15T08:40:06;9.83;66.67
70089;HTU21D;57460;47.134;19.888;2024-02-15T08:42:42;9.79;67.20
70089;HTU21D;57460;47.134;19.888;2024-02-15T08:45:09;9.77;67.01
70089;HTU21D;57460;47.134;19.888;2024-02-15T08:47:40;9.76;67.24
70089;HTU21D;57460;47.134;19.888;2024-02-15T08:50:07;9.79;66.75
70089;HTU21D;57460;47.134;19.888;2024-02-15T08:52:37;9.80;68.74
70089;HTU21D;57460;47.134;19.888;2024-02-15T08:55:07;9.75;67.98
70089;HTU21D;57460;47.134;19.888;2024-02-15T08:57:35;9.63;69.24
70089;HTU21D;57460;47.134;19.888;2024-02-15T09:00:05;9.54;69.19
70089;HTU21D;57460;47.134;19.888;2024-02-15T09:02:39;9.55;68.20
70089;HTU21D;57460;47.134;19.888;2024-02-15T09:05:06;9.55;69.33
70089;HTU21D;57460;47.134;19.888;2024-02-15T09:07:32;9.54;68.59
70089;HTU21D;57460;47.134;19.888;2024-02-15T09:09:58;9.53;68.33
70089;HTU21D;57460;47.134;19.888;2024-02-15T09:12:24;9.51;68.71
70089;HTU21D;57460;47.134;19.888;2024-02-15T09:14:50;9.55;68.71
70089;HTU21D;57460;47.134;19.888;2024-02-15T09:17:15;9.60;68.31
70089;HTU21D;57460;47.134;19.888;2024-02-15T09:19:41;9.61;68.21
70089;HTU21D;57460;47.134;19.888;2024-02-15T09:22:07;9.67;68.57
70089;HTU21D;57460;47.134;19.888;2024-02-15T09:24:33;9.74;68.13
70089;HTU21D;57460;47.134;19.888;2024-02-15T09:27:02;9.85;67.58
70089;HTU21D;57460;47.134;19.888;2024-02-15T09:29:28;9.91;67.52
70089;HTU21D;57460;47.134;19.888;2024-02-15T09:32:00;9.96;67.04
70089;HTU21D;57460;47.134;19.888;2024-02-15T09:34:27;9.98;66.65
70089;HTU21D;57460;47.134;19.888;2024-02-15T09:36:53;9.98;66.86
70089;HTU21D;57460;47.134;19.888;2024-02-15T09:39:19;9.99;66.49
70089;HTU21D;57460;47.134;19.888;2024-02-15T09:41:45;9.99;66.93
70089;HTU21D;57460;47.134;19.888;2024-02-15T09:44:10;10.00;66.33
70089;HTU21D;57460;47.134;19.888;2024-02-15T09:46:43;10.01;66.24
70089;HTU21D;57460;47.134;19.888;2024-02-15T09:49:12;10.07;66.08
70089;HTU21D;57460;47.134;19.888;2024-02-15T09:51:40;10.04;65.85
70089;HTU21D;57460;47.134;19.888;2024-02-15T09:54:05;10.12;65.61
70089;HTU21D;57460;47.134;19.888;2024-02-15T09:56:35;10.14;64.76
70089;HTU21D;57460;47.134;19.888;2024-02-15T09:59:01;10.14;65.78
70089;HTU21D;57460;47.134;19.888;2024-02-15T10:01:31;10.21;64.72
70089;HTU21D;57460;47.134;19.888;2024-02-15T10:03:58;10.33;64.14
70089;HTU21D;57460;47.134;19.888;2024-02-15T10:06:24;10.36;64.29
70089;HTU21D;57460;47.134;19.888;2024-02-15T10:08:51;10.43;64.40
70089;HTU21D;57460;47.134;19.888;2024-02-15T10:11:17;10.50;63.68
70089;HTU21D;57460;47.134;19.888;2024-02-15T10:13:42;10.54;62.79
70089;HTU21D;57460;47.134;19.888;2024-02-15T10:16:17;10.67;63.60
70089;HTU21D;57460;47.134;19.888;2024-02-15T10:18:45;10.82;63.63
70089;HTU21D;57460;47.134;19.888;2024-02-15T10:21:32;10.94;62.29
70089;HTU21D;57460;47.134;19.888;2024-02-15T10:24:08;11.08;62.24
70089;HTU21D;57460;47.134;19.888;2024-02-15T10:26:35;11.05;63.00
70089;HTU21D;57460;47.134;19.888;2024-02-15T10:29:11;11.16;62.70
70089;HTU21D;57460;47.134;19.888;2024-02-15T10:31:38;11.32;62.84
70089;HTU21D;57460;47.134;19.888;2024-02-15T10:34:07;11.51;60.60
70089;HTU21D;57460;47.134;19.888;2024-02-15T10:36:34;11.45;61.37
70089;HTU21D;57460;47.134;19.888;2024-02-15T10:39:14;11.34;59.95
70089;HTU21D;57460;47.134;19.888;2024-02-15T10:41:46;11.36;61.57
70089;HTU21D;57460;47.134;19.888;2024-02-15T10:44:23;11.31;60.69
70089;HTU21D;57460;47.134;19.888;2024-02-15T10:46:50;11.30;60.83
70089;HTU21D;57460;47.134;19.888;2024-02-15T10:49:20;11.39;60.58
70089;HTU21D;57460;47.134;19.888;2024-02-15T10:51:57;11.42;60.76
70089;HTU21D;57460;47.134;19.888;2024-02-15T10:57:13;11.42;62.31
70089;HTU21D;57460;47.134;19.888;2024-02-15T10:59:55;11.47;61.89
70089;HTU21D;57460;47.134;19.888;2024-02-15T11:02:30;11.56;63.28
70089;HTU21D;57460;47.134;19.888;2024-02-15T11:05:06;11.72;61.50
70089;HTU21D;57460;47.134;19.888;2024-02-15T11:07:38;11.70;60.82
70089;HTU21D;57460;47.134;19.888;2024-02-15T11:10:08;11.71;60.16
70089;HTU21D;57460;47.134;19.888;2024-02-15T11:12:37;11.74;59.39
70089;HTU21D;57460;47.134;19.888;2024-02-15T11:15:03;11.72;58.61
70089;HTU21D;57460;47.134;19.888;2024-02-15T11:20:09;11.85;59.98
70089;HTU21D;57460;47.134;19.888;2024-02-15T11:22:40;11.88;59.51
70089;HTU21D;57460;47.134;19.888;2024-02-15T11:25:07;11.81;58.25
70089;HTU21D;57460;47.134;19.888;2024-02-15T11:27:40;11.78;59.78
70089;HTU21D;57460;47.134;19.888;2024-02-15T11:30:07;11.83;59.34
70089;HTU21D;57460;47.134;19.888;2024-02-15T11:35:12;11.83;59.86
70089;HTU21D;57460;47.134;19.888;2024-02-15T11:40:22;11.97;60.04
70089;HTU21D;57460;47.134;19.888;2024-02-15T11:42:53;12.11;60.26
70089;HTU21D;57460;47.134;19.888;2024-02-15T11:45:19;12.23;59.50
70089;HTU21D;57460;47.134;19.888;2024-02-15T11:47:53;12.17;59.50
70089;HTU21D;57460;47.134;19.888;2024-02-15T11:50:21;12.27;58.51
70089;HTU21D;57460;47.134;19.888;2024-02-15T11:52:48;12.23;57.91
70089;HTU21D;57460;47.134;19.888;2024-02-15T11:55:23;12.29;58.77
70089;HTU21D;57460;47.134;19.888;2024-02-15T12:00:28;12.42;56.96
70089;HTU21D;57460;47.134;19.888;2024-02-15T12:03:15;12.52;57.85
70089;HTU21D;57460;47.134;19.888;2024-02-15T12:05:59;12.48;57.45
70089;HTU21D;57460;47.134;19.888;2024-02-15T12:08:47;12.53;57.77
70089;HTU21D;57460;47.134;19.888;2024-02-15T12:11:32;12.59;57.28
70089;HTU21D;57460;47.134;19.888;2024-02-15T12:14:17;12.58;57.64
70089;HTU21D;57460;47.134;19.888;2024-02-15T12:17:03;12.58;58.25
70089;HTU21D;57460;47.134;19.888;2024-02-15T12:19:50;12.62;55.52
70089;HTU21D;57460;47.134;19.888;2024-02-15T12:22:31;12.70;56.70
70089;HTU21D;57460;47.134;19.888;2024-02-15T12:25:00;12.74;55.47
70089;HTU21D;57460;47.134;19.888;2024-02-15T12:27:27;12.77;56.01
70089;HTU21D;57460;47.134;19.888;2024-02-15T12:29:57;12.80;52.85
70089;HTU21D;57460;47.134;19.888;2024-02-15T12:32:27;12.92;56.09
70089;HTU21D;57460;47.134;19.888;2024-02-15T12:35:08;12.91;53.33
70089;HTU21D;57460;47.134;19.888;2024-02-15T12:37:35;12.99;54.10
70089;HTU21D;57460;47.134;19.888;2024-02-15T12:40:17;13.00;55.05
70089;HTU21D;57460;47.134;19.888;2024-02-15T12:42:44;13.01;54.89
70089;HTU21D;57460;47.134;19.888;2024-02-15T12:45:20;13.02;54.16
70089;HTU21D;57460;47.134;19.888;2024-02-15T12:47:53;13.11;55.87
70089;HTU21D;57460;47.134;19.888;2024-02-15T12:50:27;13.08;56.22
70089;HTU21D;57460;47.134;19.888;2024-02-15T12:52:54;13.09;52.88
70089;HTU21D;57460;47.134;19.888;2024-02-15T12:55:23;13.11;54.12
70089;HTU21D;57460;47.134;19.888;2024-02-15T12:57:54;13.08;54.17
70089;HTU21D;57460;47.134;19.888;2024-02-15T13:00:26;13.16;54.38
70089;HTU21D;57460;47.134;19.888;2024-02-15T13:02:57;13.12;54.87
70089;HTU21D;57460;47.134;19.888;2024-02-15T13:05:27;13.12;55.20
70089;HTU21D;57460;47.134;19.888;2024-02-15T13:07:54;13.09;52.03
70089;HTU21D;57460;47.134;19.888;2024-02-15T13:10:35;13.05;52.01
70089;HTU21D;57460;47.134;19.888;2024-02-15T13:13:01;13.11;52.62
70089;HTU21D;57460;47.134;19.888;2024-02-15T13:15:27;13.23;55.07
70089;HTU21D;57460;47.134;19.888;2024-02-15T13:17:56;13.31;53.30
70089;HTU21D;57460;47.134;19.888;2024-02-15T13:20:26;13.38;53.58
70089;HTU21D;57460;47.134;19.888;2024-02-15T13:23:03;13.37;54.62
70089;HTU21D;57460;47.134;19.888;2024-02-15T13:25:37;13.26;52.60
70089;HTU21D;57460;47.134;19.888;2024-02-15T13:28:05;13.30;52.36
70089;HTU21D;57460;47.134;19.888;2024-02-15T13:30:32;13.35;53.80
70089;HTU21D;57460;47.134;19.888;2024-02-15T13:32:58;13.44;53.27
70089;HTU21D;57460;47.134;19.888;2024-02-15T13:35:24;13.50;51.14
70089;HTU21D;57460;47.134;19.888;2024-02-15T13:37:50;13.55;52.28
70089;HTU21D;57460;47.134;19.888;2024-02-15T13:40:22;13.65;54.20
70089;HTU21D;57460;47.134;19.888;2024-02-15T13:42:50;13.82;54.61
70089;HTU21D;57460;47.134;19.888;2024-02-15T13:47:50;14.05;52.14
70089;HTU21D;57460;47.134;19.888;2024-02-15T13:50:17;14.12;53.18
70089;HTU21D;57460;47.134;19.888;2024-02-15T13:52:44;14.09;52.20
70089;HTU21D;57460;47.134;19.888;2024-02-15T13:55:14;13.90;51.30
70089;HTU21D;57460;47.134;19.888;2024-02-15T13:57:41;13.80;49.58
70089;HTU21D;57460;47.134;19.888;2024-02-15T14:00:09;13.76;50.21
70089;HTU21D;57460;47.134;19.888;2024-02-15T14:02:42;13.71;52.30
70089;HTU21D;57460;47.134;19.888;2024-02-15T14:05:11;13.74;51.26
70089;HTU21D;57460;47.134;19.888;2024-02-15T14:07:40;13.74;52.01
70089;HTU21D;57460;47.134;19.888;2024-02-15T14:10:06;13.67;52.05
70089;HTU21D;57460;47.134;19.888;2024-02-15T14:12:33;13.63;53.56
70089;HTU21D;57460;47.134;19.888;2024-02-15T14:15:00;13.62;50.55
70089;HTU21D;57460;47.134;19.888;2024-02-15T14:17:26;13.71;53.49
70089;HTU21D;57460;47.134;19.888;2024-02-15T14:19:53;13.64;51.79
70089;HTU21D;57460;47.134;19.888;2024-02-15T14:22:19;13.61;52.69
70089;HTU21D;57460;47.134;19.888;2024-02-15T14:24:49;13.70;53.19
70089;HTU21D;57460;47.134;19.888;2024-02-15T14:27:15;13.56;51.34
70089;HTU21D;57460;47.134;19.888;2024-02-15T14:29:41;13.62;53.02
70089;HTU21D;57460;47.134;19.888;2024-02-15T14:32:26;13.61;53.10
70089;HTU21D;57460;47.134;19.888;2024-02-15T14:35:10;13.53;51.07
70089;HTU21D;57460;47.134;19.888;2024-02-15T14:37:36;13.47;51.87
70089;HTU21D;57460;47.134;19.888;2024-02-15T14:40:02;13.47;52.68
70089;HTU21D;57460;47.134;19.888;2024-02-15T14:42:29;13.53;53.41
70089;HTU21D;57460;47.134;19.888;2024-02-15T14:44:55;13.64;52.33
70089;HTU21D;57460;47.134;19.888;2024-02-15T14:47:20;13.74;51.58
70089;HTU21D;57460;47.134;19.888;2024-02-15T14:49:47;13.79;51.71
70089;HTU21D;57460;47.134;19.888;2024-02-15T14:52:13;13.82;50.90
70089;HTU21D;57460;47.134;19.888;2024-02-15T14:54:40;13.84;52.64
70089;HTU21D;57460;47.134;19.888;2024-02-15T14:57:06;13.73;51.72
70089;HTU21D;57460;47.134;19.888;2024-02-15T14:59:32;13.60;50.83
70089;HTU21D;57460;47.134;19.888;2024-02-15T15:01:59;13.54;51.95
70089;HTU21D;57460;47.134;19.888;2024-02-15T15:04:34;13.53;52.69
70089;HTU21D;57460;47.134;19.888;2024-02-15T15:07:13;13.54;52.05
70089;HTU21D;57460;47.134;19.888;2024-02-15T15:09:57;13.58;51.40
70089;HTU21D;57460;47.134;19.888;2024-02-15T15:12:41;13.55;51.91
70089;HTU21D;57460;47.134;19.888;2024-02-15T15:15:11;13.55;53.65
70089;HTU21D;57460;47.134;19.888;2024-02-15T15:17:40;13.50;53.31
70089;HTU21D;57460;47.134;19.888;2024-02-15T15:20:06;13.48;53.67
70089;HTU21D;57460;47.134;19.888;2024-02-15T15:22:34;13.46;53.81
70089;HTU21D;57460;47.134;19.888;2024-02-15T15:25:03;13.46;53.94
70089;HTU21D;57460;47.134;19.888;2024-02-15T15:27:29;13.36;53.81
70089;HTU21D;57460;47.134;19.888;2024-02-15T15:29:55;13.33;54.17
70089;HTU21D;57460;47.134;19.888;2024-02-15T15:32:22;13.24;54.05
70089;HTU21D;57460;47.134;19.888;2024-02-15T15:34:48;13.14;54.28